Calliham, TX (78007)

4:27 AM CDT on May 06, 2015 (GMT -0500)
Beeville | | Change Station
CLOSE
Current Station
Airport
Location: Beeville,
Elevation: 269 ft
Nearby Weather Stations

Elev 269 ft 28.37 °N, 97.80 °W | Updated 12 minutes ago

Overcast
Overcast
74 °F
Feels Like 74 °F
N
8
Wind Variable Wind from SE

Today
High -- | Low -- °F
--% Chance of Precip.
Yesterday
High -- | Low -- °F
Precip. -- in
6:49 AM 8:11 PM
Waning Gibbous, 95% visible
Pressure 29.90 in
Visibility 10.0 miles
Clouds Mostly Cloudy 1500 ft
Overcast 2500 ft
Dew Point 74 °F
Humidity 100%
Rainfall 0.00 in
Snow Depth Not available.
UV 0 out of 12
Pollen 7.10 out of 12
Air Quality Not available.
Flu Activity Sporadic
METAR KBEA 060915Z AUTO 14007KT 10SM BKN015 OVC025 23/23 A2990 RMK AO2 T02310231

More Conditions Fewer Conditions

Pressure 29.90 in
Visibility 10.0 miles
Clouds Mostly Cloudy 1500 ft
Overcast 2500 ft
Dew Point 74 °F
Humidity 100%
Rainfall 0.00 in
Snow Depth Not available.
UV 0 out of 12
Pollen 7.10 out of 12
Air Quality Not available.
Flu Activity Sporadic
METAR KBEA 060915Z AUTO 14007KT 10SM BKN015 OVC025 23/23 A2990 RMK AO2 T02310231

More Conditions Fewer Conditions

10-Day Weather Forecast

Almanac

Astronomy

May. 06, 2015 Rise Set
Actual Time
Civil Twilight
Nautical Twilight
Astronomical Twilight
Moon
Length of Visible Light
Length of Day
Tomorrow will be .
, % of the Moon is Illuminated

Today's Extremes

State Highs State Lows

Community

WunderPhotos

Upload Photos

1,818,858 photos uploaded!

WunderBlogs® & News

Nearby

Air Quality

  Air Quality AQ Index Pollutant
Not available.

Snow Depth

Station Depth Elevation

Earthquake Activity

City Distance Mag. Time & Date
Minimum magnitude displayed is 2.5.

Coastal Water Temperatures

Place Temperature

Stations

Nearby Weather Stations

Station Location Temp. Windchill Dew Point Humidity Wind Precip. Elev Updated Type